Terminal Aerodrome Forecast
Issued by NWS

Home | Current Version | Previous Version | Text Only | Print | Product List | Glossary On
Versions: 1 2 3 4 5 6 7 8 9 10 11 12 13
000
FTUS44 KEPZ 301100
TAFTCS
TAF
KTCS 301129Z 3012/3112 02013G26KT P6SM FEW120
     FM301600 02010G17KT P6SM FEW060 SCT110 SCT250
     FM302100 07009KT P6SM VCSH SCT060 BKN110 OVC230
     FM310500 28005KT P6SM BKN050 BKN100 OVC200=

USA.gov is the U.S. government's official web portal to all federal, state and local government web resources and services.